Time;durP1;ratioP1;P1;durP2;ratioP2;P2;SDS_P1;SDS_P2;PMS_P1;PMS_P2;Temp;Humidity;BMP_temperature;BMP_pressure;BME280_temperature;BME280_humidity;BME280_pressure;Samples;Min_cycle;Max_cycle;Signal;HPM_P1;HPM_P2
2022/04/06 00:20:41;81669.00;0.27;141.92;0.00;0.00;0.62;;;;;15.90;1.00;;;;;;2271126;61;1322;-89
2022/04/06 00:28:04;387549.00;1.29;668.40;0.00;0.00;0.62;;;;;15.60;1.00;;;;;;2292241;55;3683;-89
2022/04/06 00:30:31;15026.00;0.05;26.66;0.00;0.00;0.62;;;;;15.80;1.00;;;;;;2293042;55;3775;-89
2022/04/06 00:55:25;162530.00;0.54;281.40;0.00;0.00;0.62;;;;;15.30;1.00;;;;;;2280453;41;3524;-90
2022/04/06 01:05:19;231329.00;0.77;399.84;0.00;0.00;0.62;;;;;14.90;1.00;;;;;;2269903;61;1397;-91
2022/04/06 01:07:50;188414.00;0.63;325.98;0.00;0.00;0.62;;;;;15.00;1.00;;;;;;2284408;40;3656;-89
2022/04/06 01:10:17;120011.00;0.40;208.10;0.00;0.00;0.62;;;;;14.80;1.00;;;;;;2290194;55;3775;-89
2022/04/06 01:25:10;185041.00;0.62;320.17;0.00;0.00;0.62;;;;;14.50;1.00;;;;;;2279364;40;3488;-90
2022/04/06 01:40:11;81888.00;0.27;142.30;0.00;0.00;0.62;;;;;14.40;1.00;;;;;;2285084;56;3627;-90
2022/04/06 01:42:38;18367.00;0.06;32.44;0.00;0.00;0.62;;;;;14.50;1.00;;;;;;2270195;55;3751;-89
2022/04/06 01:47:34;191699.00;0.64;331.63;0.00;0.00;0.62;;;;;14.00;1.00;;;;;;2261765;61;1426;-90
2022/04/06 01:55:01;90754.00;0.30;157.61;0.00;0.00;0.62;;;;;14.20;1.00;;;;;;2271542;55;3575;-88
2022/04/06 02:04:59;279189.00;0.93;482.14;0.00;0.00;0.62;;;;;13.70;1.00;;;;;;2265531;61;1422;-88
2022/04/06 02:24:55;255174.00;0.85;440.85;0.00;0.00;0.62;;;;;13.70;1.00;;;;;;2320212;40;3471;-89
2022/04/06 02:27:22;13695.00;0.05;24.35;0.00;0.00;0.62;;;;;13.80;1.00;;;;;;2273690;40;3563;-87
2022/04/06 02:42:18;72726.00;0.24;126.47;0.00;0.00;0.62;;;;;14.40;1.00;;;;;;2270605;61;1954;-89
2022/04/06 02:52:17;223191.00;0.74;385.83;13029.00;0.04;23.20;;;;;14.30;1.00;;;;;;2273273;56;3680;-90
2022/04/06 02:54:43;232356.00;0.77;401.60;0.00;0.00;0.62;;;;;14.30;1.00;;;;;;2297150;41;3613;-88
2022/04/06 03:14:39;36371.00;0.12;63.61;0.00;0.00;0.62;;;;;13.40;1.00;;;;;;2270221;55;3638;-89
2022/04/06 03:17:07;7328.00;0.02;13.32;0.00;0.00;0.62;;;;;13.60;1.00;;;;;;2269868;55;3774;-88
2022/04/06 03:19:34;75073.00;0.25;130.53;0.00;0.00;0.62;;;;;13.70;1.00;;;;;;2268143;61;951;-89
2022/04/06 03:22:01;118093.00;0.39;204.79;0.00;0.00;0.62;;;;;13.60;1.00;;;;;;2267890;61;1918;-90
2022/04/06 03:26:58;160839.00;0.54;278.48;0.00;0.00;0.62;;;;;13.50;1.00;;;;;;2265796;61;1408;-90
2022/04/06 03:34:23;76763.00;0.26;133.45;0.00;0.00;0.62;;;;;13.70;1.00;;;;;;2265997;61;1405;-88
2022/04/06 03:54:27;435810.00;1.45;751.38;102345.00;0.34;177.62;;;;;13.50;1.00;;;;;;2266588;61;1025;-89
2022/04/06 04:36:52;792002.00;2.64;1367.18;13961.00;0.05;24.81;;;;;13.90;1.00;;;;;;2266749;61;1274;-91
2022/04/06 04:41:49;318797.00;1.06;550.23;38783.00;0.13;67.78;;;;;14.30;1.00;;;;;;1389900;56;3548;-88
2022/04/06 04:54:12;250001.00;0.83;431.95;0.00;0.00;0.62;;;;;13.80;1.00;;;;;;1560383;56;3611;-88
2022/04/06 05:06:38;213621.00;0.71;369.37;0.00;0.00;0.62;;;;;13.90;1.00;;;;;;2326690;40;3532;-89
2022/04/06 05:11:35;181173.00;0.60;313.51;0.00;0.00;0.62;;;;;14.00;1.00;;;;;;2262782;61;1315;-91
2022/04/06 05:14:03;58562.00;0.20;101.99;0.00;0.00;0.62;;;;;13.70;1.00;;;;;;2260399;61;1144;-87
2022/04/06 05:16:30;38327.00;0.13;66.99;0.00;0.00;0.62;;;;;13.60;1.00;;;;;;2260418;61;1108;-88
2022/04/06 05:18:57;100474.00;0.33;174.39;0.00;0.00;0.62;;;;;13.40;1.00;;;;;;2260392;61;1340;-89
2022/04/06 05:21:25;55181.00;0.18;96.15;0.00;0.00;0.62;;;;;13.20;1.00;;;;;;2260452;61;1624;-88
2022/04/06 05:23:51;20795.00;0.07;36.65;0.00;0.00;0.62;;;;;13.20;1.00;;;;;;2260395;61;1916;-89
2022/04/06 05:26:18;18932.00;0.06;33.42;0.00;0.00;0.62;;;;;13.50;1.00;;;;;;2260432;61;1032;-90
2022/04/06 05:28:47;71147.00;0.24;123.74;5270.00;0.02;9.75;;;;;13.50;1.00;;;;;;2260400;61;1341;-89
2022/04/06 05:31:14;295660.00;0.99;510.46;52842.00;0.18;92.10;;;;;13.90;1.00;;;;;;2260461;61;1115;-89
2022/04/06 05:33:41;18109.00;0.06;32.00;0.00;0.00;0.62;;;;;14.10;1.00;;;;;;2260259;61;1070;-90
2022/04/06 05:36:08;62159.00;0.21;108.21;0.00;0.00;0.62;;;;;14.10;1.00;;;;;;2260349;61;1107;-89
2022/04/06 05:38:35;76046.00;0.25;132.21;0.00;0.00;0.62;;;;;14.20;1.00;;;;;;2260116;61;1356;-88
2022/04/06 05:41:02;192095.00;0.64;332.32;61025.00;0.20;106.25;;;;;14.40;1.00;;;;;;2260038;61;1580;-89
2022/04/06 05:43:30;87459.00;0.29;151.92;0.00;0.00;0.62;;;;;14.30;1.00;;;;;;2282137;40;3560;-87
2022/04/06 05:45:58;129788.00;0.43;224.96;0.00;0.00;0.62;;;;;14.40;1.00;;;;;;2268287;61;2151;-89
2022/04/06 05:48:25;52958.00;0.18;92.30;0.00;0.00;0.62;;;;;14.40;1.00;;;;;;2268300;61;1273;-88
2022/04/06 05:50:52;11286.00;0.04;20.18;0.00;0.00;0.62;;;;;14.30;1.00;;;;;;2268342;61;1184;-88
2022/04/06 05:53:19;5741.00;0.02;10.57;0.00;0.00;0.62;;;;;14.40;1.00;;;;;;2268269;61;1075;-91
2022/04/06 05:55:47;13702.00;0.05;24.36;0.00;0.00;0.62;;;;;14.10;1.00;;;;;;2268229;61;1829;-88
2022/04/06 05:58:15;72166.00;0.24;125.50;0.00;0.00;0.62;;;;;13.70;1.00;;;;;;2268207;61;1254;-89
2022/04/06 06:00:42;0.00;0.00;0.62;0.00;0.00;0.62;;;;;14.00;1.00;;;;;;2268153;61;1024;-89
2022/04/06 06:03:10;43087.00;0.14;75.23;0.00;0.00;0.62;;;;;13.90;1.00;;;;;;2268136;61;1918;-88
2022/04/06 06:05:37;18314.00;0.06;32.35;0.00;0.00;0.62;;;;;14.10;1.00;;;;;;2268287;61;1651;-88
2022/04/06 06:08:05;0.00;0.00;0.62;0.00;0.00;0.62;;;;;14.30;1.00;;;;;;2268104;61;1273;-88
2022/04/06 06:10:32;70970.00;0.24;123.44;0.00;0.00;0.62;;;;;14.20;1.00;;;;;;2265862;61;1629;-89
2022/04/06 06:12:59;93623.00;0.31;162.56;0.00;0.00;0.62;;;;;14.00;1.00;;;;;;2264166;61;1235;-89
2022/04/06 06:15:26;15570.00;0.05;27.60;0.00;0.00;0.62;;;;;13.80;1.00;;;;;;2264074;61;1698;-91
2022/04/06 06:17:54;55765.00;0.19;97.16;0.00;0.00;0.62;;;;;14.00;1.00;;;;;;2264201;61;1300;-89
2022/04/06 06:20:22;9498.00;0.03;17.08;0.00;0.00;0.62;;;;;14.10;1.00;;;;;;2264118;61;984;-89
2022/04/06 06:22:49;30326.00;0.10;53.15;0.00;0.00;0.62;;;;;14.20;1.00;;;;;;2264105;61;1994;-88
2022/04/06 06:25:16;176423.00;0.59;305.33;0.00;0.00;0.62;;;;;14.40;1.00;;;;;;2264165;61;2341;-89
2022/04/06 06:27:46;178321.00;0.59;308.60;0.00;0.00;0.62;;;;;14.70;1.00;;;;;;2264217;61;1286;-87
2022/04/06 06:30:14;213525.00;0.71;369.20;156.00;0.00;0.89;;;;;14.70;1.00;;;;;;2264073;61;1505;-88
2022/04/06 06:32:42;108346.00;0.36;187.98;0.00;0.00;0.62;;;;;14.60;1.00;;;;;;2263911;61;1087;-89
2022/04/06 06:35:10;251258.00;0.84;434.11;14524.00;0.05;25.79;;;;;14.90;1.00;;;;;;2264166;61;1650;-90
2022/04/06 06:37:46;240330.00;0.80;415.32;31291.00;0.10;54.82;;;;;15.10;1.00;;;;;;2264251;61;1303;-88
2022/04/06 06:40:13;358603.00;1.20;618.65;69491.00;0.23;120.88;;;;;15.20;1.00;;;;;;2263847;61;1057;-90
2022/04/06 06:42:41;210869.00;0.70;364.63;29527.00;0.10;51.76;;;;;15.10;1.00;;;;;;2263936;61;1920;-88
2022/04/06 06:45:08;180380.00;0.60;312.14;0.00;0.00;0.62;;;;;14.80;1.00;;;;;;2263865;61;1769;-90
2022/04/06 06:47:35;244170.00;0.81;421.92;20609.00;0.07;36.32;;;;;14.80;1.00;;;;;;2264167;61;1301;-89
2022/04/06 06:50:03;256098.00;0.85;442.44;10154.00;0.03;18.22;;;;;14.70;1.00;;;;;;2264193;61;1069;-88
2022/04/06 06:52:32;541198.00;1.80;932.79;20229.00;0.07;35.67;;;;;14.80;1.00;;;;;;2264182;61;1099;-88
2022/04/06 06:55:00;613033.00;2.04;1056.73;61045.00;0.20;106.28;;;;;14.80;1.00;;;;;;2264168;61;979;-88
2022/04/06 06:57:27;402053.00;1.34;693.33;0.00;0.00;0.62;;;;;14.80;1.00;;;;;;2264145;61;1259;-89
2022/04/06 06:59:54;548554.00;1.83;945.47;33700.00;0.11;58.99;;;;;14.70;1.00;;;;;;2264138;61;1049;-87
2022/04/06 07:02:21;479623.00;1.60;826.75;16421.00;0.05;29.07;;;;;14.60;1.00;;;;;;2264170;61;1000;-89
2022/04/06 07:04:48;482541.00;1.61;831.77;34137.00;0.11;59.74;;;;;14.40;1.00;;;;;;2264156;61;2035;-88
2022/04/06 07:07:15;263665.00;0.88;455.45;0.00;0.00;0.62;;;;;14.20;1.00;;;;;;2264137;61;1404;-87
2022/04/06 07:09:42;689741.00;2.30;1189.45;54486.00;0.18;94.94;;;;;14.50;1.00;;;;;;2263964;61;1729;-89
2022/04/06 07:12:11;729964.00;2.43;1259.24;37625.00;0.13;65.78;;;;;14.70;1.00;;;;;;2264101;61;1706;-88
2022/04/06 07:14:38;544468.00;1.81;938.42;11793.00;0.04;21.06;;;;;14.60;1.00;;;;;;2264079;61;1864;-88
2022/04/06 07:17:06;595210.00;1.98;1025.95;70222.00;0.23;122.14;;;;;14.70;1.00;;;;;;2264126;61;1281;-88
2022/04/06 07:19:33;872881.00;2.91;1508.54;88146.00;0.29;153.11;;;;;14.60;1.00;;;;;;2263979;61;1545;-90
2022/04/06 07:21:59;471956.00;1.57;813.56;23725.00;0.08;41.72;;;;;14.40;1.00;;;;;;2264141;61;1441;-89
2022/04/06 07:24:26;380819.00;1.27;656.83;0.00;0.00;0.62;;;;;14.40;1.00;;;;;;2264011;61;1993;-88
2022/04/06 07:26:53;754516.00;2.52;1301.91;23058.00;0.08;40.57;;;;;14.90;1.00;;;;;;2263898;61;1741;-88
2022/04/06 07:29:22;853521.00;2.85;1474.63;65969.00;0.22;114.79;;;;;15.10;1.00;;;;;;2263801;61;1785;-90
2022/04/06 07:31:49;556033.00;1.85;958.36;27538.00;0.09;48.32;;;;;15.30;1.00;;;;;;2264049;61;1439;-89
2022/04/06 07:34:16;691571.00;2.31;1192.62;15861.00;0.05;28.10;;;;;15.20;1.00;;;;;;2263977;61;1389;-87
2022/04/06 07:36:42;698014.00;2.33;1203.79;62114.00;0.21;108.13;;;;;15.30;1.00;;;;;;2263781;61;1404;-89
2022/04/06 07:39:10;746382.00;2.49;1287.77;40995.00;0.14;71.61;;;;;15.40;1.00;;;;;;2263942;61;1749;-89
2022/04/06 07:41:37;820811.00;2.74;1417.44;62989.00;0.21;109.64;;;;;15.20;1.00;;;;;;2264020;61;1511;-88
2022/04/06 07:44:05;581698.00;1.94;1002.63;20981.00;0.07;36.97;;;;;15.30;1.00;;;;;;2264012;61;1917;-88
2022/04/06 07:46:35;509001.00;1.70;877.32;0.00;0.00;0.62;;;;;15.40;1.00;;;;;;2264049;61;1578;-90
2022/04/06 07:49:02;576891.00;1.92;994.33;43303.00;0.14;75.60;;;;;15.30;1.00;;;;;;2263924;61;1314;-89
2022/04/06 07:51:29;388250.00;1.29;669.61;61620.00;0.21;107.28;;;;;15.50;1.00;;;;;;2263937;61;1982;-88
2022/04/06 07:53:56;561721.00;1.87;968.17;28478.00;0.09;49.95;;;;;15.60;1.00;;;;;;2263973;61;1124;-88
2022/04/06 07:56:23;536183.00;1.79;924.15;33659.00;0.11;58.92;;;;;15.30;1.00;;;;;;2264336;61;1697;-89
2022/04/06 07:58:50;440260.00;1.47;759.03;27061.00;0.09;47.50;;;;;15.10;1.00;;;;;;2264647;61;1400;-89
2022/04/06 08:01:17;752272.00;2.51;1298.01;29481.00;0.10;51.68;;;;;14.90;1.00;;;;;;2264605;61;1712;-89
2022/04/06 08:03:45;624575.00;2.08;1076.67;68563.00;0.23;119.28;;;;;15.20;1.00;;;;;;2264566;61;2000;-90
2022/04/06 08:06:13;585278.00;1.95;1008.81;55594.00;0.19;96.86;;;;;15.50;1.00;;;;;;2264702;61;1140;-89
2022/04/06 08:08:39;990713.00;3.30;1716.03;139446.00;0.46;241.62;;;;;15.60;1.00;;;;;;2264512;61;1646;-88
2022/04/06 08:11:08;867385.00;2.89;1498.91;6743.00;0.02;12.31;;;;;15.70;1.00;;;;;;2264618;61;1455;-89
2022/04/06 08:13:35;571031.00;1.90;984.23;44537.00;0.15;77.74;;;;;15.80;1.00;;;;;;2264600;61;1727;-88
2022/04/06 08:16:02;700846.00;2.34;1208.71;19208.00;0.06;33.90;;;;;15.80;1.00;;;;;;2264625;61;928;-90
2022/04/06 08:18:29;1029754.00;3.43;1785.24;31717.00;0.11;55.55;;;;;16.10;1.00;;;;;;2264484;61;1983;-89
2022/04/06 08:20:59;713047.00;2.38;1229.87;14079.00;0.05;25.02;;;;;16.30;1.00;;;;;;2264613;61;989;-88
2022/04/06 08:23:26;775298.00;2.58;1338.08;98505.00;0.33;170.99;;;;;16.40;1.00;;;;;;2264493;61;2002;-87
2022/04/06 08:25:53;664281.00;2.21;1145.35;0.00;0.00;0.62;;;;;16.20;1.00;;;;;;2264676;61;929;-88
2022/04/06 08:28:23;820675.00;2.74;1417.20;16894.00;0.06;29.89;;;;;16.40;1.00;;;;;;2264633;61;1392;-90
2022/04/06 08:30:50;453748.00;1.51;782.23;30082.00;0.10;52.73;;;;;16.60;1.00;;;;;;2264500;61;1144;-87
2022/04/06 08:33:17;712100.00;2.37;1228.23;43985.00;0.15;76.78;;;;;16.70;1.00;;;;;;2264478;61;1360;-88
2022/04/06 08:35:44;1066459.00;3.55;1850.54;37212.00;0.12;65.06;;;;;16.50;1.00;;;;;;2264389;61;1473;-88
2022/04/06 08:38:17;518410.00;1.73;893.53;41643.00;0.14;72.73;;;;;15.80;1.00;;;;;;2264549;61;1369;-89
2022/04/06 08:40:45;501775.00;1.67;864.88;21479.00;0.07;37.83;;;;;15.60;1.00;;;;;;2264564;61;1095;-88
2022/04/06 08:43:14;509110.00;1.70;877.51;1565.00;0.01;3.33;;;;;15.50;1.00;;;;;;2264428;61;2012;-88
2022/04/06 08:45:42;552959.00;1.84;953.06;26987.00;0.09;47.37;;;;;15.30;1.00;;;;;;2264513;61;1137;-88
2022/04/06 08:48:11;524161.00;1.75;903.43;52572.00;0.18;91.63;;;;;15.50;1.00;;;;;;2264492;61;1370;-87
2022/04/06 08:50:40;308975.00;1.03;533.35;18162.00;0.06;32.09;;;;;16.00;1.00;;;;;;2264623;61;1033;-87
2022/04/06 08:53:08;624967.00;2.08;1077.35;66427.00;0.22;115.59;;;;;16.20;1.00;;;;;;2264513;61;1088;-89
2022/04/06 08:55:37;613013.00;2.04;1056.69;24723.00;0.08;43.45;;;;;16.20;1.00;;;;;;2264632;61;1119;-88
2022/04/06 08:58:04;834614.00;2.78;1441.56;59722.00;0.20;104.00;;;;;16.50;1.00;;;;;;2264541;61;1389;-89
2022/04/06 09:00:32;799995.00;2.67;1381.12;31731.00;0.11;55.58;;;;;16.70;1.00;;;;;;2264486;61;1677;-87
2022/04/06 09:03:01;684463.00;2.28;1180.31;0.00;0.00;0.62;;;;;17.10;1.00;;;;;;2264569;61;1128;-91
2022/04/06 09:05:32;838425.00;2.79;1448.22;71759.00;0.24;124.80;;;;;17.30;1.00;;;;;;2264486;61;1928;-88
2022/04/06 09:08:00;633170.00;2.11;1091.53;53848.00;0.18;93.84;;;;;17.40;1.00;;;;;;2264493;61;1504;-87
2022/04/06 09:10:33;794806.00;2.65;1372.07;45268.00;0.15;79.00;;;;;17.50;1.00;;;;;;2264514;61;1481;-89
2022/04/06 09:13:13;209142.00;0.70;361.66;0.00;0.00;0.62;;;;;17.40;1.00;;;;;;2264441;61;1614;-87
2022/04/06 09:15:41;89597.00;0.30;155.61;0.00;0.00;0.62;;;;;17.70;1.00;;;;;;2264426;61;1542;-87
2022/04/06 09:18:08;2521.00;0.01;4.99;0.00;0.00;0.62;;;;;17.20;1.00;;;;;;2264316;61;1662;-87
2022/04/06 09:20:35;102736.00;0.34;178.29;3734.00;0.01;7.09;;;;;17.50;1.00;;;;;;2264444;61;1659;-86
2022/04/06 09:23:03;250784.00;0.84;433.30;17044.00;0.06;30.15;;;;;17.60;1.00;;;;;;2264374;61;1346;-87
2022/04/06 09:25:35;505661.00;1.69;871.57;77556.00;0.26;134.82;;;;;17.50;1.00;;;;;;2264353;61;2013;-87
2022/04/06 09:28:12;287020.00;0.96;495.61;9981.00;0.03;17.92;;;;;17.80;1.00;;;;;;2264388;61;1266;-86
2022/04/06 09:30:44;92763.00;0.31;161.08;0.00;0.00;0.62;;;;;18.20;1.00;;;;;;2264388;61;1061;-86
2022/04/06 09:33:16;5560.00;0.02;10.26;0.00;0.00;0.62;;;;;18.60;1.00;;;;;;2264355;61;2028;-86
2022/04/06 09:35:44;158070.00;0.53;273.71;0.00;0.00;0.62;;;;;18.50;1.00;;;;;;2264369;61;1111;-87
2022/04/06 09:38:16;63941.00;0.21;111.29;0.00;0.00;0.62;;;;;18.40;1.00;;;;;;2264386;61;1335;-87
2022/04/06 09:40:44;111235.00;0.37;192.96;0.00;0.00;0.62;;;;;18.50;1.00;;;;;;2264431;61;1028;-88
2022/04/06 09:43:26;0.00;0.00;0.62;0.00;0.00;0.62;;;;;18.60;1.00;;;;;;2264383;61;1559;-86
2022/04/06 09:48:53;6523.00;0.02;11.92;0.00;0.00;0.62;;;;;18.40;1.00;;;;;;2264453;61;1437;-86
2022/04/06 09:51:21;0.00;0.00;0.62;0.00;0.00;0.62;;;;;18.50;1.00;;;;;;2264175;61;1035;-87
2022/04/06 09:53:50;18512.00;0.06;32.69;0.00;0.00;0.62;;;;;18.10;1.00;;;;;;2264376;61;1104;-88
2022/04/06 09:56:18;10416.00;0.03;18.67;0.00;0.00;0.62;;;;;18.10;1.00;;;;;;2264372;61;1002;-87
2022/04/06 09:58:47;263987.00;0.88;456.00;0.00;0.00;0.62;;;;;18.40;1.00;;;;;;2264236;61;1545;-87
2022/04/06 10:01:15;81402.00;0.27;141.46;0.00;0.00;0.62;;;;;18.50;1.00;;;;;;2264357;61;1036;-88
2022/04/06 10:03:49;1706.00;0.01;3.58;0.00;0.00;0.62;;;;;18.70;1.00;;;;;;2264114;61;1986;-89
2022/04/06 10:06:16;0.00;0.00;0.62;0.00;0.00;0.62;;;;;19.10;1.00;;;;;;2264342;61;1640;-87
2022/04/06 10:08:44;26323.00;0.09;46.22;0.00;0.00;0.62;;;;;18.80;1.00;;;;;;2264338;61;1390;-85
2022/04/06 10:11:12;0.00;0.00;0.62;0.00;0.00;0.62;;;;;19.10;1.00;;;;;;2264217;61;1047;-88
2022/04/06 10:13:40;32402.00;0.11;56.74;0.00;0.00;0.62;;;;;19.30;1.00;;;;;;2264229;61;1112;-89
2022/04/06 10:16:12;16242.00;0.05;28.76;0.00;0.00;0.62;;;;;19.50;1.00;;;;;;2264314;61;1128;-86
2022/04/06 10:18:41;29352.00;0.10;51.46;0.00;0.00;0.62;;;;;19.50;1.00;;;;;;2263933;61;1445;-86
2022/04/06 10:21:14;0.00;0.00;0.62;0.00;0.00;0.62;;;;;19.30;1.00;;;;;;2264120;61;1100;-86
2022/04/06 10:23:51;0.00;0.00;0.62;0.00;0.00;0.62;;;;;19.30;1.00;;;;;;2264162;61;1990;-86
2022/04/06 10:26:34;0.00;0.00;0.62;0.00;0.00;0.62;;;;;19.60;1.00;;;;;;2264026;61;1055;-86
2022/04/06 10:29:01;42926.00;0.14;74.95;0.00;0.00;0.62;;;;;19.70;1.00;;;;;;2266240;61;1887;-86
2022/04/06 10:31:31;0.00;0.00;0.62;0.00;0.00;0.62;;;;;19.80;1.00;;;;;;2268198;61;1082;-88
2022/04/06 10:34:20;39509.00;0.13;69.04;0.00;0.00;0.62;;;;;19.40;1.00;;;;;;2267859;61;1056;-86
2022/04/06 10:37:05;0.00;0.00;0.62;0.00;0.00;0.62;;;;;19.40;1.00;;;;;;2268185;61;1389;-85
2022/04/06 10:39:32;6218.00;0.02;11.40;0.00;0.00;0.62;;;;;19.40;1.00;;;;;;2268201;61;1334;-86
2022/04/06 10:42:16;45152.00;0.15;78.80;0.00;0.00;0.62;;;;;19.40;1.00;;;;;;2268098;61;1721;-86
2022/04/06 10:44:44;348700.00;1.16;601.63;62167.00;0.21;108.22;;;;;19.60;1.00;;;;;;2268026;61;2005;-85
2022/04/06 10:47:14;328953.00;1.10;567.69;0.00;0.00;0.62;;;;;19.10;1.00;;;;;;2268100;61;1254;-85
2022/04/06 10:49:41;620237.00;2.07;1069.18;33824.00;0.11;59.20;;;;;18.90;1.00;;;;;;2268070;61;1580;-86
2022/04/06 10:52:26;331778.00;1.11;572.54;7844.00;0.03;14.21;;;;;19.00;1.00;;;;;;2268196;61;1162;-86
2022/04/06 10:54:54;753473.00;2.51;1300.10;38463.00;0.13;67.23;;;;;18.50;1.00;;;;;;2268133;61;1233;-88
2022/04/06 10:57:21;871982.00;2.91;1506.96;83744.00;0.28;145.50;;;;;18.30;1.00;;;;;;2268154;61;1262;-87
2022/04/06 11:00:13;231979.00;0.77;400.95;91918.00;0.31;159.62;;;;;18.30;1.00;;;;;;2268193;61;1033;-87
2022/04/06 11:02:50;1042460.00;3.47;1807.82;97197.00;0.32;168.73;;;;;18.50;1.00;;;;;;2267247;61;1140;-88
2022/04/06 11:05:46;1080696.00;3.60;1875.94;136016.00;0.45;235.70;;;;;18.60;1.00;;;;;;2267871;61;2008;-88
2022/04/06 11:11:39;38972.00;0.13;68.11;0.00;0.00;0.62;;;;;19.00;1.00;;;;;;2268201;61;729;-88
2022/04/06 11:14:07;232000.00;0.77;400.99;0.00;0.00;0.62;;;;;19.20;1.00;;;;;;2267929;61;1693;-87
2022/04/06 11:16:44;827239.00;2.76;1428.67;45069.00;0.15;78.66;;;;;19.20;1.00;;;;;;2268032;61;1751;-86
2022/04/06 11:19:13;489611.00;1.63;843.94;0.00;0.00;0.62;;;;;19.30;1.00;;;;;;2268108;61;1104;-88
2022/04/06 11:21:51;372300.00;1.24;642.19;1923.00;0.01;3.95;;;;;19.10;1.00;;;;;;2267993;61;1041;-87
2022/04/06 11:24:23;20515.00;0.07;36.16;0.00;0.00;0.62;;;;;19.30;1.00;;;;;;2267917;61;2008;-87
2022/04/06 11:26:51;30066.00;0.10;52.70;0.00;0.00;0.62;;;;;19.50;1.00;;;;;;2267960;61;1297;-88
2022/04/06 11:29:19;740.00;0.00;1.90;0.00;0.00;0.62;;;;;19.20;1.00;;;;;;2267971;61;1105;-88
2022/04/06 11:32:00;0.00;0.00;0.62;0.00;0.00;0.62;;;;;19.20;1.00;;;;;;2268778;61;995;-88
2022/04/06 11:34:37;0.00;0.00;0.62;0.00;0.00;0.62;;;;;19.40;1.00;;;;;;2268690;61;1120;-89
2022/04/06 11:37:06;37020.00;0.12;64.73;0.00;0.00;0.62;;;;;19.20;1.00;;;;;;2268761;61;1480;-88
2022/04/06 11:39:34;161962.00;0.54;280.42;0.00;0.00;0.62;;;;;18.90;1.00;;;;;;2268747;61;1614;-87
2022/04/06 11:42:04;4293.00;0.01;8.06;0.00;0.00;0.62;;;;;19.00;1.00;;;;;;2268668;61;991;-88
2022/04/06 11:44:31;0.00;0.00;0.62;0.00;0.00;0.62;;;;;19.00;1.00;;;;;;2268543;61;2000;-87
2022/04/06 11:46:58;35394.00;0.12;61.92;0.00;0.00;0.62;;;;;19.00;1.00;;;;;;2268678;61;1741;-88
2022/04/06 11:49:29;33868.00;0.11;59.28;0.00;0.00;0.62;;;;;19.30;1.00;;;;;;2268677;61;1841;-89
2022/04/06 11:51:58;0.00;0.00;0.62;0.00;0.00;0.62;;;;;19.00;1.00;;;;;;2268651;61;2139;-88
2022/04/06 11:54:27;312523.00;1.04;539.45;15743.00;0.05;27.90;;;;;19.00;1.00;;;;;;2268651;61;1022;-89
2022/04/06 11:59:23;360979.00;1.20;622.73;14570.00;0.05;25.87;;;;;19.40;1.00;;;;;;2266467;61;1420;-87
2022/04/06 12:01:51;554581.00;1.85;955.86;99743.00;0.33;173.13;;;;;19.40;1.00;;;;;;2264636;61;1475;-88
2022/04/06 12:04:21;731494.00;2.44;1261.90;87805.00;0.29;152.52;;;;;19.40;1.00;;;;;;2264439;61;2002;-88
2022/04/06 12:06:48;516293.00;1.72;889.88;47142.00;0.16;82.24;;;;;19.30;1.00;;;;;;2264687;61;1307;-86
2022/04/06 12:09:17;566627.00;1.89;976.63;8224.00;0.03;14.87;;;;;19.60;1.00;;;;;;2264576;61;920;-86
2022/04/06 12:11:49;613675.00;2.05;1057.84;23200.00;0.08;40.81;;;;;19.60;1.00;;;;;;2264632;61;904;-88
2022/04/06 12:14:16;619865.00;2.07;1068.53;138210.00;0.46;239.49;;;;;19.50;1.00;;;;;;2264536;61;1092;-88
2022/04/06 12:19:15;1057389.00;3.52;1834.39;48482.00;0.16;84.56;;;;;19.40;1.00;;;;;;2266307;61;1429;-90
2022/04/06 12:21:43;617274.00;2.06;1064.06;47205.00;0.16;82.35;;;;;19.40;1.00;;;;;;2264475;61;2074;-86
2022/04/06 12:24:11;643114.00;2.14;1108.72;60946.00;0.20;106.11;;;;;19.30;1.00;;;;;;2264612;61;1706;-86
2022/04/06 12:26:47;705205.00;2.35;1216.27;80032.00;0.27;139.09;;;;;19.30;1.00;;;;;;2264614;61;1932;-89
2022/04/06 12:29:16;767940.00;2.56;1325.27;51886.00;0.17;90.45;;;;;19.50;1.00;;;;;;2260496;61;1049;-87
2022/04/06 12:34:36;583483.00;1.94;1005.71;14384.00;0.05;25.54;;;;;19.70;1.00;;;;;;2266380;61;1413;-88
2022/04/06 12:39:55;58076.00;0.19;101.15;0.00;0.00;0.62;;;;;19.90;1.00;;;;;;2263573;61;1101;-87
2022/04/06 12:42:24;0.00;0.00;0.62;0.00;0.00;0.62;;;;;20.10;1.00;;;;;;2264354;61;941;-88
2022/04/06 12:44:57;3865.00;0.01;7.32;0.00;0.00;0.62;;;;;20.00;1.00;;;;;;2264435;61;1920;-88
2022/04/06 12:47:24;0.00;0.00;0.62;0.00;0.00;0.62;;;;;19.70;1.00;;;;;;2264408;61;1504;-88
2022/04/06 12:49:52;162471.00;0.54;281.30;0.00;0.00;0.62;;;;;19.50;1.00;;;;;;2264460;61;2218;-89
2022/04/06 12:52:21;213070.00;0.71;368.42;0.00;0.00;0.62;;;;;19.80;1.00;;;;;;2264365;61;1626;-88
2022/04/06 12:54:50;482189.00;1.61;831.16;63060.00;0.21;109.77;;;;;19.30;1.00;;;;;;2264317;61;1575;-90
2022/04/06 12:57:19;383361.00;1.28;661.20;84864.00;0.28;147.44;;;;;19.50;1.00;;;;;;2264285;61;1525;-89
2022/04/06 12:59:58;174504.00;0.58;302.02;8298.00;0.03;15.00;;;;;19.50;1.00;;;;;;2264281;61;1656;-88
2022/04/06 13:02:28;0.00;0.00;0.62;0.00;0.00;0.62;;;;;19.40;1.00;;;;;;2264383;61;1079;-89
2022/04/06 13:04:56;106052.00;0.35;184.02;0.00;0.00;0.62;;;;;19.70;1.00;;;;;;2264382;61;1916;-89
2022/04/06 13:07:23;75848.00;0.25;131.86;0.00;0.00;0.62;;;;;19.70;1.00;;;;;;2264060;61;1249;-88
2022/04/06 13:09:52;42706.00;0.14;74.57;0.00;0.00;0.62;;;;;19.90;1.00;;;;;;2264485;61;944;-88
2022/04/06 13:14:49;96075.00;0.32;166.80;0.00;0.00;0.62;;;;;20.00;1.00;;;;;;2261764;61;1403;-87
2022/04/06 13:17:19;156990.00;0.52;271.85;13356.00;0.04;23.76;;;;;19.80;1.00;;;;;;2260212;61;1631;-86
2022/04/06 13:19:46;0.00;0.00;0.62;0.00;0.00;0.62;;;;;19.80;1.00;;;;;;2260464;61;1021;-89
2022/04/06 13:22:14;37049.00;0.12;64.78;0.00;0.00;0.62;;;;;19.80;1.00;;;;;;2260469;61;1030;-86
2022/04/06 13:24:41;29672.00;0.10;52.02;0.00;0.00;0.62;;;;;20.00;1.00;;;;;;2260354;61;1923;-87
2022/04/06 13:27:09;0.00;0.00;0.62;0.00;0.00;0.62;;;;;19.80;1.00;;;;;;2260382;61;1734;-87
2022/04/06 13:32:06;71870.00;0.24;124.99;0.00;0.00;0.62;;;;;19.90;1.00;;;;;;2269735;61;1405;-88
2022/04/06 13:34:34;23314.00;0.08;41.01;0.00;0.00;0.62;;;;;20.30;1.00;;;;;;2268357;61;1697;-86
2022/04/06 13:37:01;0.00;0.00;0.62;0.00;0.00;0.62;;;;;20.70;1.00;;;;;;2268239;61;1273;-87
2022/04/06 13:39:28;67891.00;0.23;118.12;0.00;0.00;0.62;;;;;21.00;1.00;;;;;;2268409;61;924;-87
2022/04/06 13:41:57;173839.00;0.58;300.88;0.00;0.00;0.62;;;;;21.00;1.00;;;;;;2268469;61;1035;-87
2022/04/06 13:44:26;110922.00;0.37;192.42;0.00;0.00;0.62;;;;;20.70;1.00;;;;;;2268272;61;1213;-89
2022/04/06 13:49:23;138060.00;0.46;239.23;0.00;0.00;0.62;;;;;20.40;1.00;;;;;;2269722;61;1342;-88
2022/04/06 13:51:54;80945.00;0.27;140.67;0.00;0.00;0.62;;;;;20.00;1.00;;;;;;2268338;61;1001;-89
2022/04/06 13:54:22;0.00;0.00;0.62;0.00;0.00;0.62;;;;;19.90;1.00;;;;;;2268422;61;1123;-87
2022/04/06 13:56:49;0.00;0.00;0.62;0.00;0.00;0.62;;;;;19.70;1.00;;;;;;2270284;55;3751;-86
2022/04/06 13:59:17;0.00;0.00;0.62;0.00;0.00;0.62;;;;;19.60;1.00;;;;;;2264300;61;1676;-87
2022/04/06 14:11:44;118913.00;0.40;206.21;0.00;0.00;0.62;;;;;20.50;1.00;;;;;;2261939;61;1413;-87
2022/04/06 14:14:12;0.00;0.00;0.62;0.00;0.00;0.62;;;;;20.40;1.00;;;;;;2268341;40;3642;-87
2022/04/06 14:19:10;0.00;0.00;0.62;0.00;0.00;0.62;;;;;20.60;1.00;;;;;;2265883;61;1383;-88
2022/04/06 14:24:08;251758.00;0.84;434.97;0.00;0.00;0.62;;;;;20.70;1.00;;;;;;2272977;55;3663;-88
2022/04/06 14:26:37;86129.00;0.29;149.62;0.00;0.00;0.62;;;;;20.90;1.00;;;;;;2267860;61;1996;-87
2022/04/06 14:29:06;34934.00;0.12;61.12;0.00;0.00;0.62;;;;;20.90;1.00;;;;;;2267839;61;1313;-88
2022/04/06 14:31:33;37630.00;0.13;65.79;0.00;0.00;0.62;;;;;20.70;1.00;;;;;;2268049;61;1030;-87
2022/04/06 14:34:00;0.00;0.00;0.62;0.00;0.00;0.62;;;;;20.90;1.00;;;;;;2268200;61;1063;-86
2022/04/06 14:36:27;0.00;0.00;0.62;0.00;0.00;0.62;;;;;20.70;1.00;;;;;;2268164;61;1110;-89
2022/04/06 14:38:54;267808.00;0.89;462.57;0.00;0.00;0.62;;;;;20.40;1.00;;;;;;2290720;41;3670;-90
2022/04/06 14:41:21;0.00;0.00;0.62;0.00;0.00;0.62;;;;;20.30;1.00;;;;;;2268136;61;1134;-87